createdAt,value
2022-09-15T00:00:09.367Z,1001.2
2022-09-15T00:01:09.491Z,1001.2
2022-09-15T00:02:09.567Z,1001.2
2022-09-15T00:03:09.435Z,1001.1
2022-09-15T00:04:09.370Z,1001.1
2022-09-15T00:05:09.372Z,1001.1
2022-09-15T00:06:09.374Z,1001.1
2022-09-15T00:07:09.420Z,1001.1
2022-09-15T00:08:09.373Z,1001.1
2022-09-15T00:09:09.366Z,1001.1
2022-09-15T00:10:09.366Z,1001.1
2022-09-15T00:13:09.375Z,1001.1
2022-09-15T00:14:09.381Z,1001.1
2022-09-15T00:15:09.370Z,1001.2
2022-09-15T00:16:09.417Z,1001.2
2022-09-15T00:17:09.420Z,1001.1
2022-09-15T00:18:09.376Z,1001.1
2022-09-15T00:19:09.417Z,1001.2
2022-09-15T00:20:09.362Z,1001.2
2022-09-15T00:21:09.380Z,1001.1
2022-09-15T00:22:09.401Z,1001.2
2022-09-15T00:23:09.377Z,1001.1
2022-09-15T00:24:09.422Z,1001.1
2022-09-15T00:25:09.372Z,1001.1
2022-09-15T00:26:09.374Z,1001.2
2022-09-15T00:27:09.384Z,1001.1
2022-09-15T00:29:09.375Z,1001.2
2022-09-15T00:30:09.377Z,1001.1
2022-09-15T00:31:09.470Z,1001.2
2022-09-15T00:32:09.390Z,1001.1
2022-09-15T00:34:09.373Z,1001.1
2022-09-15T00:35:09.368Z,1001.1
2022-09-15T00:36:09.373Z,1001.1
2022-09-15T00:37:09.378Z,1001
2022-09-15T00:38:09.374Z,1001
2022-09-15T00:40:09.402Z,1001.1
2022-09-15T00:41:09.388Z,1001.1
2022-09-15T00:42:09.377Z,1001.1
2022-09-15T00:43:09.376Z,1001.1
2022-09-15T00:44:09.371Z,1001.1
2022-09-15T00:45:09.372Z,1001.1
2022-09-15T00:46:09.423Z,1001
2022-09-15T00:47:19.166Z,1001.1
2022-09-15T00:48:09.381Z,1001.1
2022-09-15T00:50:09.375Z,1001
2022-09-15T00:51:09.436Z,1001.1
2022-09-15T00:55:09.382Z,1001.1
2022-09-15T00:56:09.385Z,1001
2022-09-15T00:57:09.381Z,1001
2022-09-15T00:59:09.376Z,1001
2022-09-15T01:00:09.373Z,1001
2022-09-15T01:01:09.399Z,1001.1
2022-09-15T01:02:09.436Z,1001
2022-09-15T01:03:09.480Z,1001
2022-09-15T01:05:09.376Z,1001
2022-09-15T01:06:09.384Z,1001
2022-09-15T01:07:09.389Z,1001
2022-09-15T01:08:09.417Z,1001
2022-09-15T01:09:09.374Z,1001
2022-09-15T01:10:09.386Z,1001
2022-09-15T01:11:09.384Z,1001.1
2022-09-15T01:12:09.399Z,1001.1
2022-09-15T01:13:09.385Z,1001
2022-09-15T01:14:09.384Z,1001.1
2022-09-15T01:16:09.442Z,1001
2022-09-15T01:17:09.376Z,1001
2022-09-15T01:18:09.382Z,1001
2022-09-15T01:19:09.378Z,1001
2022-09-15T01:20:09.388Z,1001.1
2022-09-15T01:21:09.377Z,1001
2022-09-15T01:22:09.381Z,1001
2022-09-15T01:23:09.389Z,1001
2022-09-15T01:24:09.386Z,1001
2022-09-15T01:25:09.447Z,1001
2022-09-15T01:26:09.387Z,1001
2022-09-15T01:27:24.450Z,1001
2022-09-15T01:28:09.383Z,1001
2022-09-15T01:29:09.399Z,1001
2022-09-15T01:30:09.380Z,1001
2022-09-15T01:31:09.386Z,1001
2022-09-15T01:33:09.386Z,1001
2022-09-15T01:34:09.462Z,1001
2022-09-15T01:37:09.393Z,1001
2022-09-15T01:38:09.387Z,1001
2022-09-15T01:39:09.380Z,1001
2022-09-15T01:40:09.432Z,1001
2022-09-15T01:41:09.393Z,1001
2022-09-15T01:42:09.440Z,1001
2022-09-15T01:43:09.381Z,1001
2022-09-15T01:44:09.394Z,1001
2022-09-15T01:45:09.400Z,1001
2022-09-15T01:46:09.418Z,1001
2022-09-15T01:47:09.387Z,1001
2022-09-15T01:48:09.399Z,1001
2022-09-15T01:49:09.388Z,1001.1
2022-09-15T01:50:09.386Z,1001.1
2022-09-15T01:51:09.386Z,1001.1
2022-09-15T01:52:09.396Z,1001.1
2022-09-15T01:53:09.387Z,1001.1
2022-09-15T01:54:09.401Z,1001.1
2022-09-15T01:55:09.409Z,1001.1
2022-09-15T01:56:09.392Z,1001.1
2022-09-15T01:58:09.384Z,1001.1
2022-09-15T01:59:09.389Z,1001.1
2022-09-15T02:00:09.391Z,1001.1
2022-09-15T02:02:09.450Z,1001.1
2022-09-15T02:03:09.397Z,1001.1
2022-09-15T02:04:09.389Z,1001.1
2022-09-15T02:05:09.424Z,1001.1
2022-09-15T02:06:09.397Z,1001.1
2022-09-15T02:07:09.393Z,1001.1
2022-09-15T02:08:09.390Z,1001.1
2022-09-15T02:09:09.448Z,1001.1
2022-09-15T02:10:09.395Z,1001.1
2022-09-15T02:11:09.392Z,1001.1
2022-09-15T02:12:09.392Z,1001.1
2022-09-15T02:13:09.393Z,1001.1
2022-09-15T02:15:09.394Z,1001.1
2022-09-15T02:16:09.433Z,1001.1
2022-09-15T02:17:09.405Z,1001.1
2022-09-15T02:18:09.416Z,1001.1
2022-09-15T02:19:09.400Z,1001.1
2022-09-15T02:20:09.400Z,1001
2022-09-15T02:21:09.394Z,1001
2022-09-15T02:22:09.404Z,1001
2022-09-15T02:23:09.404Z,1001
2022-09-15T02:24:09.405Z,1001
2022-09-15T02:25:09.398Z,1001
2022-09-15T02:26:09.392Z,1001
2022-09-15T02:27:09.397Z,1001
2022-09-15T02:28:09.401Z,1001
2022-09-15T02:29:09.401Z,1001
2022-09-15T02:30:09.397Z,1001.1
2022-09-15T02:31:09.455Z,1001.1
2022-09-15T02:32:09.431Z,1001.1
2022-09-15T02:33:09.393Z,1001.1
2022-09-15T02:34:09.403Z,1001.1
2022-09-15T02:35:09.421Z,1001.1
2022-09-15T02:37:09.407Z,1001.1
2022-09-15T02:38:09.401Z,1001.1
2022-09-15T02:39:09.407Z,1001.1
2022-09-15T02:40:09.473Z,1001.1
2022-09-15T02:41:09.409Z,1001.2
2022-09-15T02:42:09.403Z,1001.1
2022-09-15T02:43:09.400Z,1001.2
2022-09-15T02:44:09.422Z,1001.2
2022-09-15T02:45:09.408Z,1001.2
2022-09-15T02:47:09.402Z,1001.2
2022-09-15T02:48:09.398Z,1001.2
2022-09-15T02:49:09.403Z,1001.2
2022-09-15T02:50:09.404Z,1001.2
2022-09-15T02:51:09.402Z,1001.2
2022-09-15T02:52:09.404Z,1001.2
2022-09-15T02:53:09.398Z,1001.2
2022-09-15T02:54:09.412Z,1001.3
2022-09-15T02:55:09.400Z,1001.2
2022-09-15T02:57:09.397Z,1001.2
2022-09-15T02:58:09.408Z,1001.3
2022-09-15T02:59:09.407Z,1001.3
2022-09-15T03:00:09.404Z,1001.3
2022-09-15T03:01:09.443Z,1001.3
2022-09-15T03:02:09.439Z,1001.3
2022-09-15T03:03:09.470Z,1001.3
2022-09-15T03:04:09.415Z,1001.3
2022-09-15T03:05:09.406Z,1001.3
2022-09-15T03:06:09.407Z,1001.3
2022-09-15T03:07:09.435Z,1001.3
2022-09-15T03:08:09.409Z,1001.3
2022-09-15T03:09:09.409Z,1001.3
2022-09-15T03:10:09.410Z,1001.3
2022-09-15T03:11:09.408Z,1001.3
2022-09-15T03:12:09.409Z,1001.3
2022-09-15T03:13:09.410Z,1001.3
2022-09-15T03:14:09.413Z,1001.3
2022-09-15T03:16:09.464Z,1001.3
2022-09-15T03:17:09.414Z,1001.3
2022-09-15T03:18:09.411Z,1001.4
2022-09-15T03:19:09.414Z,1001.3
2022-09-15T03:20:09.489Z,1001.4
2022-09-15T03:21:09.422Z,1001.3
2022-09-15T03:22:09.431Z,1001.3
2022-09-15T03:23:09.415Z,1001.3
2022-09-15T03:24:09.419Z,1001.3
2022-09-15T03:25:09.405Z,1001.3
2022-09-15T03:26:09.413Z,1001.3
2022-09-15T03:27:09.420Z,1001.3
2022-09-15T03:28:09.417Z,1001.2
2022-09-15T03:29:09.421Z,1001.2
2022-09-15T03:30:09.415Z,1001.2
2022-09-15T03:31:09.439Z,1001.2
2022-09-15T03:32:09.412Z,1001.3
2022-09-15T03:33:09.411Z,1001.2
2022-09-15T03:34:09.435Z,1001.3
2022-09-15T03:35:09.414Z,1001.2
2022-09-15T03:36:09.412Z,1001.2
2022-09-15T03:37:09.416Z,1001.3
2022-09-15T03:38:09.468Z,1001.2
2022-09-15T03:39:09.414Z,1001.2
2022-09-15T03:40:09.473Z,1001.2
2022-09-15T03:41:09.414Z,1001.2
2022-09-15T03:42:09.484Z,1001.2
2022-09-15T03:43:09.424Z,1001.2
2022-09-15T03:44:09.413Z,1001.1
2022-09-15T03:45:09.421Z,1001.2
2022-09-15T03:46:09.520Z,1001.2
2022-09-15T03:47:09.417Z,1001.1
2022-09-15T03:48:09.419Z,1001.1
2022-09-15T03:49:09.414Z,1001.1
2022-09-15T03:50:09.412Z,1001.1
2022-09-15T03:53:09.418Z,1001.1
2022-09-15T03:54:09.433Z,1001.1
2022-09-15T03:55:09.421Z,1001.2
2022-09-15T03:56:09.420Z,1001.2
2022-09-15T03:58:09.422Z,1001.2
2022-09-15T03:59:09.437Z,1001.2
2022-09-15T04:00:09.421Z,1001.1
2022-09-15T04:01:09.583Z,1001.2
2022-09-15T04:02:09.779Z,1001.2
2022-09-15T04:03:09.419Z,1001.2
2022-09-15T04:04:09.425Z,1001.2
2022-09-15T04:05:09.439Z,1001.2
2022-09-15T04:06:09.421Z,1001.2
2022-09-15T04:07:09.422Z,1001.1
2022-09-15T04:08:09.421Z,1001.2
2022-09-15T04:09:09.494Z,1001.1
2022-09-15T04:10:09.416Z,1001.2
2022-09-15T04:11:09.427Z,1001.2
2022-09-15T04:12:09.420Z,1001.2
2022-09-15T04:13:09.431Z,1001.2
2022-09-15T04:15:09.440Z,1001.2
2022-09-15T04:16:09.482Z,1001.2
2022-09-15T04:17:09.429Z,1001.2
2022-09-15T04:18:09.425Z,1001.2
2022-09-15T04:19:09.428Z,1001.2
2022-09-15T04:20:09.425Z,1001.2
2022-09-15T04:21:09.427Z,1001.2
2022-09-15T04:22:09.433Z,1001.2
2022-09-15T04:23:09.428Z,1001.2
2022-09-15T04:24:09.429Z,1001.2
2022-09-15T04:25:09.426Z,1001.2
2022-09-15T04:26:09.430Z,1001.2
2022-09-15T04:27:09.425Z,1001.2
2022-09-15T04:28:09.433Z,1001.2
2022-09-15T04:29:09.458Z,1001.2
2022-09-15T04:30:09.427Z,1001.2
2022-09-15T04:31:09.642Z,1001.3
2022-09-15T04:32:09.433Z,1001.2
2022-09-15T04:33:09.465Z,1001.3
2022-09-15T04:34:09.424Z,1001.2
2022-09-15T04:35:09.433Z,1001.3
2022-09-15T04:36:09.438Z,1001.3
2022-09-15T04:37:09.432Z,1001.3
2022-09-15T04:38:09.431Z,1001.3
2022-09-15T04:39:09.428Z,1001.3
2022-09-15T04:40:09.521Z,1001.3
2022-09-15T04:41:09.432Z,1001.3
2022-09-15T04:42:09.433Z,1001.3
2022-09-15T04:44:09.431Z,1001.3
2022-09-15T04:45:09.434Z,1001.4
2022-09-15T04:46:09.468Z,1001.4
2022-09-15T04:47:09.432Z,1001.4
2022-09-15T04:48:09.430Z,1001.4
2022-09-15T04:49:09.431Z,1001.3
2022-09-15T04:50:09.434Z,1001.3
2022-09-15T04:51:09.431Z,1001.3
2022-09-15T04:52:09.903Z,1001.3
2022-09-15T04:53:09.434Z,1001.3
2022-09-15T04:54:09.444Z,1001.3
2022-09-15T04:55:09.433Z,1001.4
2022-09-15T04:56:09.432Z,1001.3
2022-09-15T04:57:09.435Z,1001.3
2022-09-15T04:58:09.468Z,1001.3
2022-09-15T04:59:09.425Z,1001.3
2022-09-15T05:00:09.438Z,1001.4
2022-09-15T05:01:09.539Z,1001.4
2022-09-15T05:02:09.516Z,1001.4
2022-09-15T05:03:09.432Z,1001.4
2022-09-15T05:05:09.435Z,1001.4
2022-09-15T05:06:09.445Z,1001.4
2022-09-15T05:07:09.436Z,1001.4
2022-09-15T05:08:09.443Z,1001.4
2022-09-15T05:09:10.510Z,1001.4
2022-09-15T05:10:09.431Z,1001.4
2022-09-15T05:11:09.459Z,1001.4
2022-09-15T05:12:09.438Z,1001.4
2022-09-15T05:13:09.434Z,1001.4
2022-09-15T05:14:09.434Z,1001.4
2022-09-15T05:16:09.487Z,1001.4
2022-09-15T05:17:09.437Z,1001.4
2022-09-15T05:18:09.433Z,1001.4
2022-09-15T05:19:09.435Z,1001.4
2022-09-15T05:20:09.443Z,1001.4
2022-09-15T05:21:09.441Z,1001.4
2022-09-15T05:22:09.436Z,1001.4
2022-09-15T05:23:09.438Z,1001.5
2022-09-15T05:24:09.445Z,1001.5
2022-09-15T05:25:09.487Z,1001.4
2022-09-15T05:26:09.437Z,1001.4
2022-09-15T05:27:09.438Z,1001.4
2022-09-15T05:28:09.448Z,1001.4
2022-09-15T05:29:09.448Z,1001.4
2022-09-15T05:30:36.024Z,1001.5
2022-09-15T05:31:09.530Z,1001.5
2022-09-15T05:32:09.441Z,1001.4
2022-09-15T05:33:09.440Z,1001.4
2022-09-15T05:34:09.443Z,1001.4
2022-09-15T05:35:09.444Z,1001.4
2022-09-15T05:36:09.447Z,1001.5
2022-09-15T05:37:09.446Z,1001.5
2022-09-15T05:38:09.442Z,1001.5
2022-09-15T05:39:09.444Z,1001.5
2022-09-15T05:40:09.495Z,1001.5
2022-09-15T05:41:09.445Z,1001.5
2022-09-15T05:43:09.449Z,1001.6
2022-09-15T05:44:09.441Z,1001.6
2022-09-15T05:45:09.440Z,1001.6
2022-09-15T05:46:09.495Z,1001.5
2022-09-15T05:47:09.505Z,1001.5
2022-09-15T05:48:09.440Z,1001.5
2022-09-15T05:49:09.449Z,1001.5
2022-09-15T05:50:09.449Z,1001.6
2022-09-15T05:51:09.452Z,1001.6
2022-09-15T05:52:09.446Z,1001.5
2022-09-15T05:53:09.450Z,1001.5
2022-09-15T05:54:09.451Z,1001.6
2022-09-15T05:55:09.441Z,1001.6
2022-09-15T05:56:09.441Z,1001.6
2022-09-15T05:57:09.453Z,1001.5
2022-09-15T05:58:09.471Z,1001.6
2022-09-15T05:59:09.446Z,1001.5
2022-09-15T06:00:09.442Z,1001.6
2022-09-15T06:01:09.449Z,1001.6
2022-09-15T06:02:09.553Z,1001.6
2022-09-15T06:03:09.487Z,1001.6
2022-09-15T06:04:09.500Z,1001.7
2022-09-15T06:05:09.450Z,1001.7
2022-09-15T06:06:09.452Z,1001.6
2022-09-15T06:07:09.445Z,1001.6
2022-09-15T06:08:09.452Z,1001.6
2022-09-15T06:09:09.458Z,1001.6
2022-09-15T06:10:09.445Z,1001.7
2022-09-15T06:11:09.457Z,1001.7
2022-09-15T06:12:09.452Z,1001.7
2022-09-15T06:13:09.456Z,1001.7
2022-09-15T06:14:09.450Z,1001.8
2022-09-15T06:15:09.455Z,1001.8
2022-09-15T06:16:09.508Z,1001.8
2022-09-15T06:17:09.451Z,1001.8
2022-09-15T06:19:09.455Z,1001.8
2022-09-15T06:20:09.451Z,1001.8
2022-09-15T06:21:09.451Z,1001.9
2022-09-15T06:22:09.451Z,1001.9
2022-09-15T06:23:09.456Z,1001.9
2022-09-15T06:24:09.455Z,1001.9
2022-09-15T06:25:09.476Z,1001.9
2022-09-15T06:26:09.454Z,1001.9
2022-09-15T06:27:09.462Z,1001.9
2022-09-15T06:28:09.462Z,1001.9
2022-09-15T06:29:09.483Z,1001.9
2022-09-15T06:30:09.456Z,1002
2022-09-15T06:31:09.456Z,1002
2022-09-15T06:32:09.535Z,1002
2022-09-15T06:34:09.463Z,1002
2022-09-15T06:35:09.458Z,1002
2022-09-15T06:36:09.455Z,1002
2022-09-15T06:37:09.454Z,1002
2022-09-15T06:38:09.510Z,1002
2022-09-15T06:39:09.465Z,1002
2022-09-15T06:40:09.485Z,1002
2022-09-15T06:41:09.455Z,1002
2022-09-15T06:42:10.344Z,1002
2022-09-15T06:43:09.463Z,1002
2022-09-15T06:44:09.457Z,1002
2022-09-15T06:45:09.476Z,1002
2022-09-15T06:46:09.498Z,1001.9
2022-09-15T06:47:09.457Z,1001.9
2022-09-15T06:48:24.119Z,1002
2022-09-15T06:50:09.452Z,1002
2022-09-15T06:51:09.461Z,1002
2022-09-15T06:52:09.457Z,1002
2022-09-15T06:54:09.458Z,1002
2022-09-15T06:55:09.464Z,1002
2022-09-15T06:56:09.460Z,1002
2022-09-15T06:57:09.453Z,1002
2022-09-15T06:58:09.465Z,1002
2022-09-15T06:59:09.462Z,1002.1
2022-09-15T07:00:09.487Z,1002
2022-09-15T07:01:09.464Z,1002
2022-09-15T07:02:09.555Z,1002
2022-09-15T07:03:09.620Z,1002
2022-09-15T07:04:09.464Z,1002
2022-09-15T07:05:09.464Z,1002.1
2022-09-15T07:06:09.460Z,1002.1
2022-09-15T07:07:09.479Z,1002
2022-09-15T07:08:09.462Z,1002.1
2022-09-15T07:09:09.460Z,1002.1
2022-09-15T07:11:09.466Z,1002.1
2022-09-15T07:12:09.464Z,1002.2
2022-09-15T07:13:09.463Z,1002.2
2022-09-15T07:14:09.463Z,1002.2
2022-09-15T07:15:09.464Z,1002.2
2022-09-15T07:16:09.493Z,1002.3
2022-09-15T07:17:09.464Z,1002.3
2022-09-15T07:18:09.471Z,1002.2
2022-09-15T07:19:09.467Z,1002.2
2022-09-15T07:20:09.471Z,1002.3
2022-09-15T07:21:09.468Z,1002.2
2022-09-15T07:22:09.476Z,1002.3
2022-09-15T07:23:09.469Z,1002.3
2022-09-15T07:24:09.460Z,1002.3
2022-09-15T07:25:09.467Z,1002.3
2022-09-15T07:26:09.477Z,1002.3
2022-09-15T07:27:09.467Z,1002.3
2022-09-15T07:28:09.459Z,1002.3
2022-09-15T07:29:09.463Z,1002.4
2022-09-15T07:30:09.472Z,1002.4
2022-09-15T07:31:09.538Z,1002.4
2022-09-15T07:32:09.593Z,1002.4
2022-09-15T07:33:09.471Z,1002.4
2022-09-15T07:34:09.466Z,1002.4
2022-09-15T07:35:09.473Z,1002.4
2022-09-15T07:36:09.467Z,1002.4
2022-09-15T07:37:09.476Z,1002.4
2022-09-15T07:38:09.467Z,1002.4
2022-09-15T07:39:09.473Z,1002.4
2022-09-15T07:40:09.560Z,1002.4
2022-09-15T07:41:09.470Z,1002.4
2022-09-15T07:43:09.472Z,1002.4
2022-09-15T07:44:09.511Z,1002.4
2022-09-15T07:45:09.473Z,1002.4
2022-09-15T07:46:09.567Z,1002.4
2022-09-15T07:49:09.520Z,1002.4
2022-09-15T07:50:09.478Z,1002.4
2022-09-15T07:51:09.476Z,1002.4
2022-09-15T07:52:09.484Z,1002.4
2022-09-15T07:53:09.489Z,1002.4
2022-09-15T07:54:09.475Z,1002.5
2022-09-15T07:55:09.490Z,1002.5
2022-09-15T07:56:09.477Z,1002.5
2022-09-15T07:58:09.480Z,1002.5
2022-09-15T07:59:09.474Z,1002.6
2022-09-15T08:00:09.474Z,1002.6
2022-09-15T08:01:09.549Z,1002.6
2022-09-15T08:04:09.480Z,1002.6
2022-09-15T08:05:09.488Z,1002.6
2022-09-15T08:07:09.500Z,1002.6
2022-09-15T08:08:09.487Z,1002.6
2022-09-15T08:16:09.547Z,1002.6
2022-09-15T08:19:09.479Z,1002.7
2022-09-15T08:24:09.494Z,1002.8
2022-09-15T08:26:13.642Z,1002.8
2022-09-15T08:27:09.488Z,1002.8
2022-09-15T08:28:09.490Z,1002.8
2022-09-15T08:29:09.493Z,1002.8
2022-09-15T08:30:09.657Z,1002.8
2022-09-15T08:31:09.507Z,1002.8
2022-09-15T08:33:09.512Z,1002.8
2022-09-15T08:34:09.484Z,1002.9
2022-09-15T08:36:09.484Z,1002.9
2022-09-15T08:37:09.495Z,1002.9
2022-09-15T08:38:09.485Z,1002.9
2022-09-15T08:39:09.490Z,1003
2022-09-15T08:40:09.555Z,1003
2022-09-15T08:41:09.497Z,1003
2022-09-15T08:42:09.503Z,1002.9
2022-09-15T08:44:09.510Z,1003
2022-09-15T08:45:09.502Z,1003
2022-09-15T08:47:09.496Z,1003
2022-09-15T08:49:09.488Z,1003
2022-09-15T08:51:09.491Z,1003
2022-09-15T08:52:09.568Z,1003
2022-09-15T08:54:09.508Z,1003.1
2022-09-15T08:59:09.491Z,1003.1
2022-09-15T09:01:09.619Z,1003.1
2022-09-15T09:04:09.654Z,1003.1
2022-09-15T09:05:09.491Z,1003.1
2022-09-15T09:06:09.496Z,1003.2
2022-09-15T09:07:09.497Z,1003.2
2022-09-15T09:09:09.548Z,1003.2
2022-09-15T09:13:09.504Z,1003.2
2022-09-15T09:17:09.506Z,1003.1
2022-09-15T09:18:09.504Z,1003.2
2022-09-15T09:19:09.508Z,1003.2
2022-09-15T09:27:09.503Z,1003.1
2022-09-15T09:28:09.505Z,1003.1
2022-09-15T09:29:09.510Z,1003.1
2022-09-15T09:30:09.513Z,1003.1
2022-09-15T09:32:09.506Z,1003.1
2022-09-15T09:34:09.507Z,1003.2
2022-09-15T09:36:09.499Z,1003.2
2022-09-15T09:43:09.510Z,1003.2
2022-09-15T09:44:09.506Z,1003.2
2022-09-15T09:45:09.550Z,1003.1
2022-09-15T09:46:09.531Z,1003.2
2022-09-15T09:47:09.508Z,1003.1
2022-09-15T09:49:09.514Z,1003.2
2022-09-15T09:50:09.554Z,1003.1
2022-09-15T09:51:09.505Z,1003.2
2022-09-15T09:53:09.507Z,1003.1
2022-09-15T09:54:09.510Z,1003.1
2022-09-15T09:58:09.518Z,1003.1
2022-09-15T10:02:09.509Z,1003.1
2022-09-15T10:03:09.515Z,1003.1
2022-09-15T10:05:09.596Z,1003.1
2022-09-15T10:07:09.511Z,1003.2
2022-09-15T10:08:09.511Z,1003.2
2022-09-15T10:11:09.513Z,1003.1
2022-09-15T10:12:09.510Z,1003.1
2022-09-15T10:23:09.525Z,1003
2022-09-15T10:25:09.513Z,1003
2022-09-15T10:35:09.516Z,1003.1
2022-09-15T10:36:09.567Z,1003.1
2022-09-15T10:37:09.553Z,1003.1
2022-09-15T10:40:09.560Z,1003.2
2022-09-15T10:42:09.530Z,1003.3
2022-09-15T10:44:09.522Z,1003.4
2022-09-15T10:46:09.584Z,1003.3
2022-09-15T10:48:09.517Z,1003.4
2022-09-15T10:49:09.533Z,1003.4
2022-09-15T10:50:09.519Z,1003.4
2022-09-15T10:51:09.518Z,1003.4
2022-09-15T10:52:09.521Z,1003.5
2022-09-15T10:55:09.521Z,1003.4
2022-09-15T11:02:09.639Z,1003.5
2022-09-15T11:12:09.524Z,1003.5
2022-09-15T11:13:09.529Z,1003.5
2022-09-15T11:14:09.524Z,1003.5
2022-09-15T11:21:09.523Z,1003.6
2022-09-15T11:22:09.556Z,1003.6
2022-09-15T11:23:09.530Z,1003.5
2022-09-15T11:24:09.531Z,1003.6
2022-09-15T11:26:09.528Z,1003.5
2022-09-15T11:28:09.525Z,1003.5
2022-09-15T11:29:09.526Z,1003.5
2022-09-15T11:30:09.528Z,1003.5
2022-09-15T11:58:09.537Z,1003.4
2022-09-15T11:59:09.542Z,1003.4
2022-09-15T12:00:09.546Z,1003.4
2022-09-15T12:02:09.590Z,1003.4
2022-09-15T12:05:09.543Z,1003.4
2022-09-15T12:10:09.566Z,1003.4
2022-09-15T12:12:09.536Z,1003.4
2022-09-15T12:14:09.543Z,1003.4
2022-09-15T12:21:09.547Z,1003.5
2022-09-15T12:22:09.550Z,1003.6
2022-09-15T12:23:09.545Z,1003.5
2022-09-15T12:26:09.540Z,1003.5
2022-09-15T12:27:09.548Z,1003.5
2022-09-15T12:28:09.553Z,1003.5
2022-09-15T12:30:09.546Z,1003.5
2022-09-15T12:32:09.545Z,1003.5
2022-09-15T12:33:09.550Z,1003.6
2022-09-15T12:35:13.467Z,1003.5
2022-09-15T12:36:09.556Z,1003.5
2022-09-15T12:37:09.545Z,1003.5
2022-09-15T12:38:10.309Z,1003.5
2022-09-15T12:39:09.552Z,1003.4
2022-09-15T12:40:09.757Z,1003.5
2022-09-15T12:41:09.576Z,1003.5
2022-09-15T12:42:09.546Z,1003.5
2022-09-15T12:43:09.545Z,1003.6
2022-09-15T12:52:09.559Z,1003.5
2022-09-15T13:04:09.557Z,1003.4
2022-09-15T13:08:09.566Z,1003.4
2022-09-15T13:16:09.603Z,1003.3
2022-09-15T13:20:09.562Z,1003.3
2022-09-15T13:30:09.561Z,1003.2
2022-09-15T13:49:09.568Z,1003
2022-09-15T13:53:09.563Z,1003
2022-09-15T13:54:09.564Z,1002.9
2022-09-15T13:55:09.564Z,1003
2022-09-15T14:18:09.580Z,1003.1
2022-09-15T14:34:09.590Z,1003
2022-09-15T14:37:09.607Z,1003
2022-09-15T14:38:09.594Z,1003
2022-09-15T14:39:09.576Z,1003
2022-09-15T14:41:09.580Z,1003
2022-09-15T14:53:09.582Z,1003
2022-09-15T15:05:09.591Z,1002.9
2022-09-15T15:06:28.428Z,1002.9
2022-09-15T15:07:09.588Z,1002.9
2022-09-15T15:09:09.591Z,1002.9
2022-09-15T15:10:09.591Z,1002.9
2022-09-15T15:11:09.589Z,1002.9
2022-09-15T15:12:09.589Z,1002.9
2022-09-15T15:16:09.660Z,1002.9
2022-09-15T15:22:09.592Z,1002.8
2022-09-15T15:24:09.597Z,1002.8
2022-09-15T15:32:09.597Z,1002.7
2022-09-15T15:36:09.597Z,1002.8
2022-09-15T15:40:09.643Z,1002.9
2022-09-15T15:42:09.611Z,1002.9
2022-09-15T15:43:09.594Z,1002.9
2022-09-15T15:44:09.601Z,1002.9
2022-09-15T15:45:09.595Z,1002.9
2022-09-15T15:54:09.597Z,1003.1
2022-09-15T15:55:09.596Z,1003.3
2022-09-15T16:00:09.598Z,1003.1
2022-09-15T16:03:09.609Z,1003.1
2022-09-15T16:04:09.605Z,1003.1
2022-09-15T16:05:09.616Z,1003.1
2022-09-15T16:15:09.599Z,1003.1
2022-09-15T16:16:09.647Z,1003
2022-09-15T16:17:09.603Z,1003.1
2022-09-15T16:22:09.653Z,1003.1
2022-09-15T16:25:09.608Z,1003.1
2022-09-15T16:26:09.605Z,1003.2
2022-09-15T16:34:09.607Z,1003.2
2022-09-15T16:36:09.613Z,1003.2
2022-09-15T16:37:09.613Z,1003.2
2022-09-15T16:38:09.667Z,1003.2
2022-09-15T16:39:09.630Z,1003.2
2022-09-15T16:42:09.680Z,1003.3
2022-09-15T16:43:09.612Z,1003.2
2022-09-15T16:46:09.671Z,1003.2
2022-09-15T16:47:09.622Z,1003.2
2022-09-15T16:48:09.621Z,1003.3
2022-09-15T17:02:09.730Z,1003.3
2022-09-15T17:15:09.620Z,1003.4
2022-09-15T17:19:09.620Z,1003.5
2022-09-15T17:21:09.616Z,1003.4
2022-09-15T17:24:09.619Z,1003.4
2022-09-15T17:30:09.636Z,1003.5
2022-09-15T17:31:09.664Z,1003.5
2022-09-15T17:54:09.632Z,1003.6
2022-09-15T17:55:09.625Z,1003.6
2022-09-15T17:57:09.628Z,1003.6
2022-09-15T17:58:09.636Z,1003.5
2022-09-15T17:59:14.272Z,1003.5
2022-09-15T18:00:09.640Z,1003.6
2022-09-15T18:15:09.642Z,1003.6
2022-09-15T18:16:09.706Z,1003.6
2022-09-15T18:17:09.641Z,1003.6
2022-09-15T18:19:09.653Z,1003.6
2022-09-15T18:20:09.634Z,1003.6
2022-09-15T18:21:09.636Z,1003.6
2022-09-15T18:22:09.669Z,1003.6
2022-09-15T18:24:09.632Z,1003.6
2022-09-15T18:38:10.165Z,1003.8
2022-09-15T19:12:09.668Z,1004
2022-09-15T19:16:09.710Z,1004.1
2022-09-15T19:28:09.652Z,1004.3
2022-09-15T19:31:09.724Z,1004.2
2022-09-15T19:56:09.666Z,1004.4
2022-09-15T19:57:09.668Z,1004.4
2022-09-15T19:58:09.662Z,1004.4
2022-09-15T20:03:09.681Z,1004.5
2022-09-15T20:07:09.662Z,1004.4
2022-09-15T20:12:09.751Z,1004.5
2022-09-15T20:13:09.674Z,1004.5
2022-09-15T20:20:09.670Z,1004.5
2022-09-15T20:27:09.757Z,1004.5
2022-09-15T21:29:09.686Z,1004.7
2022-09-15T21:30:09.686Z,1004.7
2022-09-15T21:31:09.682Z,1004.7
2022-09-15T21:45:09.689Z,1004.7
2022-09-15T21:49:09.693Z,1004.7
2022-09-15T21:50:09.693Z,1004.7
2022-09-15T21:52:09.682Z,1004.7
2022-09-15T21:53:09.685Z,1004.8
2022-09-15T21:58:09.696Z,1004.8
2022-09-15T22:04:09.692Z,1004.9
2022-09-15T22:18:09.991Z,1004.9
2022-09-15T22:33:09.698Z,1004.9
2022-09-15T22:40:09.751Z,1004.9
2022-09-15T22:52:09.695Z,1004.9
2022-09-15T23:00:09.705Z,1005
2022-09-15T23:25:09.712Z,1004.8
2022-09-15T23:27:09.722Z,1004.8
